Galeville, New York
Current Conditions -  °F | °C
As of 6:54 PM on Sunday 25 Jan 2015 (Local Time) from KSYR Reporting Station
Scattered Clouds Scattered Clouds  
Wind Chill: -17°   Ceiling: Unl
Heat Index: -12°   Visibility: 10mi
Dew Point: -16°   Wind: 5mph
Humidity: 73%   Direction: 10°N
Pressure: 30.04"   Gusts: NA
Location:  43.1098°N, 76.1878°W
Report Text: KSYR 252354Z 01004KT 10SM SCT200 M12/M16 A3004 RMK AO2 SLP176 4/002 60000 T11221161 11072 21122 51029 $
Loading
Personal Weather Stations






























Interactive Weather Map New forecast layout! Learn more

10-Day Weather Forecast

Advertisements
Track Severe Weather on mobile